sensor_id;sensor_type;location;lat;lon;timestamp;pressure;altitude;pressure_sealevel;temperature
7882;BMP180;3986;41.884;23.466;2023-12-29T00:01:24;92689.00;;;0.60
7882;BMP180;3986;41.884;23.466;2023-12-29T00:03:55;92679.00;;;0.50
7882;BMP180;3986;41.884;23.466;2023-12-29T00:06:23;92676.00;;;0.30
7882;BMP180;3986;41.884;23.466;2023-12-29T00:08:50;92685.00;;;-0.20
7882;BMP180;3986;41.884;23.466;2023-12-29T00:11:17;92680.00;;;0.00
7882;BMP180;3986;41.884;23.466;2023-12-29T00:13:44;92674.00;;;-0.30
7882;BMP180;3986;41.884;23.466;2023-12-29T00:16:11;92668.00;;;0.00
7882;BMP180;3986;41.884;23.466;2023-12-29T00:18:38;92665.00;;;0.10
7882;BMP180;3986;41.884;23.466;2023-12-29T00:21:05;92692.00;;;0.20
7882;BMP180;3986;41.884;23.466;2023-12-29T00:23:34;92667.00;;;0.30
7882;BMP180;3986;41.884;23.466;2023-12-29T00:26:01;92671.00;;;0.40
7882;BMP180;3986;41.884;23.466;2023-12-29T00:28:27;92663.00;;;0.40
7882;BMP180;3986;41.884;23.466;2023-12-29T00:30:54;92678.00;;;0.20
7882;BMP180;3986;41.884;23.466;2023-12-29T00:33:21;92667.00;;;0.40
7882;BMP180;3986;41.884;23.466;2023-12-29T00:35:48;92677.00;;;0.30
7882;BMP180;3986;41.884;23.466;2023-12-29T00:38:14;92674.00;;;0.30
7882;BMP180;3986;41.884;23.466;2023-12-29T00:40:42;92607.00;;;0.30
7882;BMP180;3986;41.884;23.466;2023-12-29T00:43:09;92662.00;;;0.30
7882;BMP180;3986;41.884;23.466;2023-12-29T00:45:36;92656.00;;;0.30
7882;BMP180;3986;41.884;23.466;2023-12-29T00:48:03;92659.00;;;0.20
7882;BMP180;3986;41.884;23.466;2023-12-29T00:50:30;92653.00;;;0.20
7882;BMP180;3986;41.884;23.466;2023-12-29T00:52:57;92648.00;;;0.20
7882;BMP180;3986;41.884;23.466;2023-12-29T00:55:24;92656.00;;;0.00
7882;BMP180;3986;41.884;23.466;2023-12-29T00:57:52;92656.00;;;0.00
7882;BMP180;3986;41.884;23.466;2023-12-29T01:00:19;92645.00;;;0.00
7882;BMP180;3986;41.884;23.466;2023-12-29T01:02:46;92665.00;;;-0.10
7882;BMP180;3986;41.884;23.466;2023-12-29T01:05:15;92658.00;;;-0.40
7882;BMP180;3986;41.884;23.466;2023-12-29T01:07:42;92648.00;;;-0.40
7882;BMP180;3986;41.884;23.466;2023-12-29T01:10:09;92648.00;;;-0.20
7882;BMP180;3986;41.884;23.466;2023-12-29T01:12:36;92649.00;;;0.00
7882;BMP180;3986;41.884;23.466;2023-12-29T01:15:05;92654.00;;;0.10
7882;BMP180;3986;41.884;23.466;2023-12-29T01:17:32;92652.00;;;0.10
7882;BMP180;3986;41.884;23.466;2023-12-29T01:19:59;92661.00;;;0.10
7882;BMP180;3986;41.884;23.466;2023-12-29T01:22:26;92644.00;;;0.00
7882;BMP180;3986;41.884;23.466;2023-12-29T01:24:52;92652.00;;;0.10
7882;BMP180;3986;41.884;23.466;2023-12-29T01:27:19;92648.00;;;0.00
7882;BMP180;3986;41.884;23.466;2023-12-29T01:29:46;92640.00;;;-0.10
7882;BMP180;3986;41.884;23.466;2023-12-29T01:32:14;92644.00;;;-0.20
7882;BMP180;3986;41.884;23.466;2023-12-29T01:34:41;92649.00;;;-0.10
7882;BMP180;3986;41.884;23.466;2023-12-29T01:37:08;92630.00;;;-0.20
7882;BMP180;3986;41.884;23.466;2023-12-29T01:39:34;92634.00;;;-0.30
7882;BMP180;3986;41.884;23.466;2023-12-29T01:42:01;92634.00;;;-0.30
7882;BMP180;3986;41.884;23.466;2023-12-29T01:44:28;92638.00;;;-0.30
7882;BMP180;3986;41.884;23.466;2023-12-29T01:46:58;92633.00;;;-0.40
7882;BMP180;3986;41.884;23.466;2023-12-29T01:49:27;92620.00;;;-0.40
7882;BMP180;3986;41.884;23.466;2023-12-29T01:51:56;92627.00;;;-0.40
7882;BMP180;3986;41.884;23.466;2023-12-29T01:54:26;92624.00;;;-0.50
7882;BMP180;3986;41.884;23.466;2023-12-29T01:56:56;92630.00;;;-0.60
7882;BMP180;3986;41.884;23.466;2023-12-29T01:59:25;92638.00;;;-0.60
7882;BMP180;3986;41.884;23.466;2023-12-29T02:01:53;92626.00;;;-0.70
7882;BMP180;3986;41.884;23.466;2023-12-29T02:04:21;92630.00;;;-0.70
7882;BMP180;3986;41.884;23.466;2023-12-29T02:06:51;92621.00;;;-0.90
7882;BMP180;3986;41.884;23.466;2023-12-29T02:09:18;92624.00;;;-1.00
7882;BMP180;3986;41.884;23.466;2023-12-29T02:11:45;92625.00;;;-1.10
7882;BMP180;3986;41.884;23.466;2023-12-29T02:14:12;92643.00;;;-1.30
7882;BMP180;3986;41.884;23.466;2023-12-29T02:16:45;92627.00;;;-1.10
7882;BMP180;3986;41.884;23.466;2023-12-29T02:19:25;92609.00;;;-1.00
7882;BMP180;3986;41.884;23.466;2023-12-29T02:21:53;92604.00;;;-1.00
7882;BMP180;3986;41.884;23.466;2023-12-29T02:24:20;92598.00;;;-1.00
7882;BMP180;3986;41.884;23.466;2023-12-29T02:26:51;92609.00;;;-1.00
7882;BMP180;3986;41.884;23.466;2023-12-29T02:29:24;92607.00;;;-0.90
7882;BMP180;3986;41.884;23.466;2023-12-29T02:31:54;92597.00;;;-1.00
7882;BMP180;3986;41.884;23.466;2023-12-29T02:34:24;92602.00;;;-0.90
7882;BMP180;3986;41.884;23.466;2023-12-29T02:36:51;92600.00;;;-1.00
7882;BMP180;3986;41.884;23.466;2023-12-29T02:39:19;92601.00;;;-1.00
7882;BMP180;3986;41.884;23.466;2023-12-29T02:41:47;92595.00;;;-1.00
7882;BMP180;3986;41.884;23.466;2023-12-29T02:44:14;92596.00;;;-1.20
7882;BMP180;3986;41.884;23.466;2023-12-29T02:46:41;92601.00;;;-1.10
7882;BMP180;3986;41.884;23.466;2023-12-29T02:49:08;92597.00;;;-1.40
7882;BMP180;3986;41.884;23.466;2023-12-29T02:51:38;92603.00;;;-2.10
7882;BMP180;3986;41.884;23.466;2023-12-29T02:54:05;92604.00;;;-2.10
7882;BMP180;3986;41.884;23.466;2023-12-29T02:56:33;92602.00;;;-1.80
7882;BMP180;3986;41.884;23.466;2023-12-29T02:59:01;92605.00;;;-1.70
7882;BMP180;3986;41.884;23.466;2023-12-29T03:01:28;92603.00;;;-2.10
7882;BMP180;3986;41.884;23.466;2023-12-29T03:03:55;92601.00;;;-1.70
7882;BMP180;3986;41.884;23.466;2023-12-29T03:06:21;92591.00;;;-1.30
7882;BMP180;3986;41.884;23.466;2023-12-29T03:08:48;92585.00;;;-1.50
7882;BMP180;3986;41.884;23.466;2023-12-29T03:11:15;92586.00;;;-1.90
7882;BMP180;3986;41.884;23.466;2023-12-29T03:13:42;92573.00;;;-1.70
7882;BMP180;3986;41.884;23.466;2023-12-29T03:16:10;92570.00;;;-1.80
7882;BMP180;3986;41.884;23.466;2023-12-29T03:18:37;92568.00;;;-1.70
7882;BMP180;3986;41.884;23.466;2023-12-29T03:21:05;92577.00;;;-1.40
7882;BMP180;3986;41.884;23.466;2023-12-29T03:23:32;92575.00;;;-1.30
7882;BMP180;3986;41.884;23.466;2023-12-29T03:25:59;92568.00;;;-1.10
7882;BMP180;3986;41.884;23.466;2023-12-29T03:28:26;92556.00;;;-1.10
7882;BMP180;3986;41.884;23.466;2023-12-29T03:30:54;92559.00;;;-1.00
7882;BMP180;3986;41.884;23.466;2023-12-29T03:33:22;92566.00;;;-1.00
7882;BMP180;3986;41.884;23.466;2023-12-29T03:35:49;92568.00;;;-1.00
7882;BMP180;3986;41.884;23.466;2023-12-29T03:38:16;92570.00;;;-1.00
7882;BMP180;3986;41.884;23.466;2023-12-29T03:40:43;92562.00;;;-1.00
7882;BMP180;3986;41.884;23.466;2023-12-29T03:43:09;92509.00;;;-1.10
7882;BMP180;3986;41.884;23.466;2023-12-29T03:45:36;92570.00;;;-1.00
7882;BMP180;3986;41.884;23.466;2023-12-29T03:48:03;92561.00;;;-1.20
7882;BMP180;3986;41.884;23.466;2023-12-29T03:50:31;92569.00;;;-1.30
7882;BMP180;3986;41.884;23.466;2023-12-29T03:52:58;92568.00;;;-1.30
7882;BMP180;3986;41.884;23.466;2023-12-29T03:55:25;92562.00;;;-1.30
7882;BMP180;3986;41.884;23.466;2023-12-29T03:57:52;92572.00;;;-1.50
7882;BMP180;3986;41.884;23.466;2023-12-29T04:00:18;92567.00;;;-1.50
7882;BMP180;3986;41.884;23.466;2023-12-29T04:02:45;92560.00;;;-1.60
7882;BMP180;3986;41.884;23.466;2023-12-29T04:05:12;92559.00;;;-1.70
7882;BMP180;3986;41.884;23.466;2023-12-29T04:07:40;92568.00;;;-1.70
7882;BMP180;3986;41.884;23.466;2023-12-29T04:10:07;92566.00;;;-1.50
7882;BMP180;3986;41.884;23.466;2023-12-29T04:12:34;92568.00;;;-1.50
7882;BMP180;3986;41.884;23.466;2023-12-29T04:15:01;92571.00;;;-1.40
7882;BMP180;3986;41.884;23.466;2023-12-29T04:17:28;92574.00;;;-1.50
7882;BMP180;3986;41.884;23.466;2023-12-29T04:19:55;92564.00;;;-1.40
7882;BMP180;3986;41.884;23.466;2023-12-29T04:22:22;92571.00;;;-1.50
7882;BMP180;3986;41.884;23.466;2023-12-29T04:24:50;92583.00;;;-1.30
7882;BMP180;3986;41.884;23.466;2023-12-29T04:27:18;92556.00;;;-1.30
7882;BMP180;3986;41.884;23.466;2023-12-29T04:29:45;92575.00;;;-1.20
7882;BMP180;3986;41.884;23.466;2023-12-29T04:32:11;92564.00;;;-1.20
7882;BMP180;3986;41.884;23.466;2023-12-29T04:34:38;92577.00;;;-1.30
7882;BMP180;3986;41.884;23.466;2023-12-29T04:37:05;92570.00;;;-1.30
7882;BMP180;3986;41.884;23.466;2023-12-29T04:39:32;92577.00;;;-1.40
7882;BMP180;3986;41.884;23.466;2023-12-29T04:42:00;92575.00;;;-1.50
7882;BMP180;3986;41.884;23.466;2023-12-29T04:44:27;92561.00;;;-1.30
7882;BMP180;3986;41.884;23.466;2023-12-29T04:46:54;92566.00;;;-1.20
7882;BMP180;3986;41.884;23.466;2023-12-29T04:49:20;92576.00;;;-1.90
7882;BMP180;3986;41.884;23.466;2023-12-29T04:51:47;92566.00;;;-1.90
7882;BMP180;3986;41.884;23.466;2023-12-29T04:54:14;92569.00;;;-2.10
7882;BMP180;3986;41.884;23.466;2023-12-29T04:56:41;92567.00;;;-1.60
7882;BMP180;3986;41.884;23.466;2023-12-29T04:59:09;92573.00;;;-1.40
7882;BMP180;3986;41.884;23.466;2023-12-29T05:01:36;92578.00;;;-1.40
7882;BMP180;3986;41.884;23.466;2023-12-29T05:04:03;92580.00;;;-1.20
7882;BMP180;3986;41.884;23.466;2023-12-29T05:06:29;92584.00;;;-1.20
7882;BMP180;3986;41.884;23.466;2023-12-29T05:08:57;92579.00;;;-1.50
7882;BMP180;3986;41.884;23.466;2023-12-29T05:11:24;92604.00;;;-1.70
7882;BMP180;3986;41.884;23.466;2023-12-29T05:13:51;92578.00;;;-1.70
7882;BMP180;3986;41.884;23.466;2023-12-29T05:16:19;92577.00;;;-2.20
7882;BMP180;3986;41.884;23.466;2023-12-29T05:18:46;92583.00;;;-2.00
7882;BMP180;3986;41.884;23.466;2023-12-29T05:21:16;92584.00;;;-1.60
7882;BMP180;3986;41.884;23.466;2023-12-29T05:23:43;92580.00;;;-2.00
7882;BMP180;3986;41.884;23.466;2023-12-29T05:26:10;92584.00;;;-1.90
7882;BMP180;3986;41.884;23.466;2023-12-29T05:28:37;92591.00;;;-1.90
7882;BMP180;3986;41.884;23.466;2023-12-29T05:31:04;92594.00;;;-1.90
7882;BMP180;3986;41.884;23.466;2023-12-29T05:33:32;92595.00;;;-1.60
7882;BMP180;3986;41.884;23.466;2023-12-29T05:36:05;92587.00;;;-1.70
7882;BMP180;3986;41.884;23.466;2023-12-29T05:38:33;92567.00;;;-1.50
7882;BMP180;3986;41.884;23.466;2023-12-29T05:40:59;92586.00;;;-1.30
7882;BMP180;3986;41.884;23.466;2023-12-29T05:43:27;92589.00;;;-1.20
7882;BMP180;3986;41.884;23.466;2023-12-29T05:45:54;92595.00;;;-1.10
7882;BMP180;3986;41.884;23.466;2023-12-29T05:48:21;92588.00;;;-1.10
7882;BMP180;3986;41.884;23.466;2023-12-29T05:50:49;92597.00;;;-1.00
7882;BMP180;3986;41.884;23.466;2023-12-29T05:53:16;92594.00;;;-1.30
7882;BMP180;3986;41.884;23.466;2023-12-29T05:55:43;92589.00;;;-1.10
7882;BMP180;3986;41.884;23.466;2023-12-29T05:58:10;92579.00;;;-1.10
7882;BMP180;3986;41.884;23.466;2023-12-29T06:00:37;92584.00;;;-1.20
7882;BMP180;3986;41.884;23.466;2023-12-29T06:03:05;92584.00;;;-1.10
7882;BMP180;3986;41.884;23.466;2023-12-29T06:05:32;92582.00;;;-1.00
7882;BMP180;3986;41.884;23.466;2023-12-29T06:08:00;92589.00;;;-1.10
7882;BMP180;3986;41.884;23.466;2023-12-29T06:10:27;92574.00;;;-1.00
7882;BMP180;3986;41.884;23.466;2023-12-29T06:12:53;92576.00;;;-1.50
7882;BMP180;3986;41.884;23.466;2023-12-29T06:15:20;92581.00;;;-1.20
7882;BMP180;3986;41.884;23.466;2023-12-29T06:17:47;92585.00;;;-1.50
7882;BMP180;3986;41.884;23.466;2023-12-29T06:20:14;92582.00;;;-1.50
7882;BMP180;3986;41.884;23.466;2023-12-29T06:22:41;92581.00;;;-1.30
7882;BMP180;3986;41.884;23.466;2023-12-29T06:25:10;92581.00;;;-1.20
7882;BMP180;3986;41.884;23.466;2023-12-29T06:27:38;92588.00;;;-1.10
7882;BMP180;3986;41.884;23.466;2023-12-29T06:30:06;92591.00;;;-0.90
7882;BMP180;3986;41.884;23.466;2023-12-29T06:32:33;92580.00;;;-1.30
7882;BMP180;3986;41.884;23.466;2023-12-29T06:35:00;92585.00;;;-1.30
7882;BMP180;3986;41.884;23.466;2023-12-29T06:37:28;92540.00;;;-1.40
7882;BMP180;3986;41.884;23.466;2023-12-29T06:39:55;92580.00;;;-1.10
7882;BMP180;3986;41.884;23.466;2023-12-29T06:42:23;92570.00;;;-1.00
7882;BMP180;3986;41.884;23.466;2023-12-29T06:44:50;92584.00;;;-0.80
7882;BMP180;3986;41.884;23.466;2023-12-29T06:47:17;92571.00;;;-0.80
7882;BMP180;3986;41.884;23.466;2023-12-29T06:49:43;92588.00;;;-0.80
7882;BMP180;3986;41.884;23.466;2023-12-29T06:52:10;92575.00;;;-0.70
7882;BMP180;3986;41.884;23.466;2023-12-29T06:54:37;92580.00;;;-0.60
7882;BMP180;3986;41.884;23.466;2023-12-29T06:57:04;92579.00;;;-0.50
7882;BMP180;3986;41.884;23.466;2023-12-29T06:59:32;92579.00;;;-0.50
7882;BMP180;3986;41.884;23.466;2023-12-29T07:01:59;92586.00;;;-0.30
7882;BMP180;3986;41.884;23.466;2023-12-29T07:04:26;92579.00;;;-0.50
7882;BMP180;3986;41.884;23.466;2023-12-29T07:06:53;92587.00;;;-0.20
7882;BMP180;3986;41.884;23.466;2023-12-29T07:09:20;92586.00;;;0.10
7882;BMP180;3986;41.884;23.466;2023-12-29T07:11:47;92582.00;;;0.10
7882;BMP180;3986;41.884;23.466;2023-12-29T07:14:15;92578.00;;;0.40
7882;BMP180;3986;41.884;23.466;2023-12-29T07:16:44;92577.00;;;0.30
7882;BMP180;3986;41.884;23.466;2023-12-29T07:19:11;92569.00;;;0.40
7882;BMP180;3986;41.884;23.466;2023-12-29T07:21:37;92569.00;;;0.20
7882;BMP180;3986;41.884;23.466;2023-12-29T07:24:05;92567.00;;;0.10
7882;BMP180;3986;41.884;23.466;2023-12-29T07:26:32;92572.00;;;0.30
7882;BMP180;3986;41.884;23.466;2023-12-29T07:28:59;92561.00;;;0.20
7882;BMP180;3986;41.884;23.466;2023-12-29T07:31:26;92563.00;;;0.30
7882;BMP180;3986;41.884;23.466;2023-12-29T07:33:55;92570.00;;;0.40
7882;BMP180;3986;41.884;23.466;2023-12-29T07:36:21;92570.00;;;0.40
7882;BMP180;3986;41.884;23.466;2023-12-29T07:38:48;92565.00;;;0.40
7882;BMP180;3986;41.884;23.466;2023-12-29T07:41:15;92576.00;;;0.80
7882;BMP180;3986;41.884;23.466;2023-12-29T07:43:43;92564.00;;;0.70
7882;BMP180;3986;41.884;23.466;2023-12-29T07:46:09;92563.00;;;0.80
7882;BMP180;3986;41.884;23.466;2023-12-29T07:48:36;92565.00;;;1.20
7882;BMP180;3986;41.884;23.466;2023-12-29T07:51:06;92567.00;;;1.20
7882;BMP180;3986;41.884;23.466;2023-12-29T07:53:33;92573.00;;;1.00
7882;BMP180;3986;41.884;23.466;2023-12-29T07:55:59;92567.00;;;1.20
7882;BMP180;3986;41.884;23.466;2023-12-29T07:58:26;92572.00;;;1.70
7882;BMP180;3986;41.884;23.466;2023-12-29T08:00:53;92556.00;;;1.90
7882;BMP180;3986;41.884;23.466;2023-12-29T08:03:20;92566.00;;;1.00
7882;BMP180;3986;41.884;23.466;2023-12-29T08:05:47;92568.00;;;1.70
7882;BMP180;3986;41.884;23.466;2023-12-29T08:08:15;92572.00;;;1.30
7882;BMP180;3986;41.884;23.466;2023-12-29T08:10:42;92566.00;;;2.10
7882;BMP180;3986;41.884;23.466;2023-12-29T08:13:09;92570.00;;;2.70
7882;BMP180;3986;41.884;23.466;2023-12-29T08:15:36;92572.00;;;3.80
7882;BMP180;3986;41.884;23.466;2023-12-29T08:18:03;92574.00;;;5.30
7882;BMP180;3986;41.884;23.466;2023-12-29T08:20:30;92578.00;;;6.20
7882;BMP180;3986;41.884;23.466;2023-12-29T08:22:57;92570.00;;;6.80
7882;BMP180;3986;41.884;23.466;2023-12-29T08:25:25;92566.00;;;7.10
7882;BMP180;3986;41.884;23.466;2023-12-29T08:27:52;92562.00;;;7.90
7882;BMP180;3986;41.884;23.466;2023-12-29T08:30:18;92558.00;;;8.80
7882;BMP180;3986;41.884;23.466;2023-12-29T08:32:45;92558.00;;;9.70
7882;BMP180;3986;41.884;23.466;2023-12-29T08:35:12;92564.00;;;10.40
7882;BMP180;3986;41.884;23.466;2023-12-29T08:37:39;92508.00;;;11.00
7882;BMP180;3986;41.884;23.466;2023-12-29T08:40:07;92546.00;;;11.60
7882;BMP180;3986;41.884;23.466;2023-12-29T08:42:35;92552.00;;;12.40
7882;BMP180;3986;41.884;23.466;2023-12-29T08:45:03;92558.00;;;12.80
7882;BMP180;3986;41.884;23.466;2023-12-29T08:47:30;92546.00;;;13.50
7882;BMP180;3986;41.884;23.466;2023-12-29T08:49:56;92542.00;;;13.90
7882;BMP180;3986;41.884;23.466;2023-12-29T08:52:22;92536.00;;;13.10
7882;BMP180;3986;41.884;23.466;2023-12-29T08:54:49;92532.00;;;15.00
7882;BMP180;3986;41.884;23.466;2023-12-29T08:57:16;92535.00;;;15.90
7882;BMP180;3986;41.884;23.466;2023-12-29T08:59:44;92532.00;;;16.90
7882;BMP180;3986;41.884;23.466;2023-12-29T09:02:11;92540.00;;;18.20
7882;BMP180;3986;41.884;23.466;2023-12-29T09:04:38;92536.00;;;19.40
7882;BMP180;3986;41.884;23.466;2023-12-29T09:07:04;92531.00;;;19.40
7882;BMP180;3986;41.884;23.466;2023-12-29T09:09:31;92527.00;;;20.50
7882;BMP180;3986;41.884;23.466;2023-12-29T09:11:58;92533.00;;;21.40
7882;BMP180;3986;41.884;23.466;2023-12-29T09:14:25;92529.00;;;21.60
7882;BMP180;3986;41.884;23.466;2023-12-29T09:16:55;92528.00;;;22.90
7882;BMP180;3986;41.884;23.466;2023-12-29T09:19:22;92530.00;;;23.20
7882;BMP180;3986;41.884;23.466;2023-12-29T09:21:48;92527.00;;;23.80
7882;BMP180;3986;41.884;23.466;2023-12-29T09:24:15;92532.00;;;23.60
7882;BMP180;3986;41.884;23.466;2023-12-29T09:26:42;92513.00;;;22.80
7882;BMP180;3986;41.884;23.466;2023-12-29T09:29:09;92517.00;;;25.50
7882;BMP180;3986;41.884;23.466;2023-12-29T09:31:36;92515.00;;;26.50
7882;BMP180;3986;41.884;23.466;2023-12-29T09:34:04;92514.00;;;26.10
7882;BMP180;3986;41.884;23.466;2023-12-29T09:36:31;92515.00;;;27.90
7882;BMP180;3986;41.884;23.466;2023-12-29T09:38:58;92516.00;;;27.70
7882;BMP180;3986;41.884;23.466;2023-12-29T09:41:26;92509.00;;;28.20
7882;BMP180;3986;41.884;23.466;2023-12-29T09:43:54;92509.00;;;28.60
7882;BMP180;3986;41.884;23.466;2023-12-29T09:46:22;92492.00;;;28.70
7882;BMP180;3986;41.884;23.466;2023-12-29T09:48:52;92490.00;;;29.20
7882;BMP180;3986;41.884;23.466;2023-12-29T09:51:21;92491.00;;;29.20
7882;BMP180;3986;41.884;23.466;2023-12-29T09:53:50;92482.00;;;29.20
7882;BMP180;3986;41.884;23.466;2023-12-29T09:56:19;92480.00;;;29.00
7882;BMP180;3986;41.884;23.466;2023-12-29T09:58:47;92479.00;;;28.00
7882;BMP180;3986;41.884;23.466;2023-12-29T10:01:14;92472.00;;;27.80
7882;BMP180;3986;41.884;23.466;2023-12-29T10:03:43;92459.00;;;28.60
7882;BMP180;3986;41.884;23.466;2023-12-29T10:06:13;92456.00;;;28.60
7882;BMP180;3986;41.884;23.466;2023-12-29T10:08:46;92446.00;;;28.10
7882;BMP180;3986;41.884;23.466;2023-12-29T10:11:15;92440.00;;;27.80
7882;BMP180;3986;41.884;23.466;2023-12-29T10:13:47;92449.00;;;28.20
7882;BMP180;3986;41.884;23.466;2023-12-29T10:16:20;92429.00;;;27.30
7882;BMP180;3986;41.884;23.466;2023-12-29T10:18:58;92385.00;;;27.20
7882;BMP180;3986;41.884;23.466;2023-12-29T10:21:29;92422.00;;;28.20
7882;BMP180;3986;41.884;23.466;2023-12-29T10:24:05;92414.00;;;27.40
7882;BMP180;3986;41.884;23.466;2023-12-29T10:26:36;92401.00;;;23.30
7882;BMP180;3986;41.884;23.466;2023-12-29T10:29:03;92405.00;;;24.20
7882;BMP180;3986;41.884;23.466;2023-12-29T10:31:30;92410.00;;;26.10
7882;BMP180;3986;41.884;23.466;2023-12-29T10:34:18;92402.00;;;27.20
7882;BMP180;3986;41.884;23.466;2023-12-29T10:36:48;92395.00;;;28.00
7882;BMP180;3986;41.884;23.466;2023-12-29T10:39:17;92398.00;;;28.00
7882;BMP180;3986;41.884;23.466;2023-12-29T10:41:44;92388.00;;;28.70
7882;BMP180;3986;41.884;23.466;2023-12-29T10:44:11;92382.00;;;28.60
7882;BMP180;3986;41.884;23.466;2023-12-29T10:46:37;92385.00;;;29.90
7882;BMP180;3986;41.884;23.466;2023-12-29T10:49:08;92390.00;;;30.50
7882;BMP180;3986;41.884;23.466;2023-12-29T10:51:35;92378.00;;;29.60
7882;BMP180;3986;41.884;23.466;2023-12-29T10:54:02;92376.00;;;30.90
7882;BMP180;3986;41.884;23.466;2023-12-29T10:56:31;92373.00;;;29.40
7882;BMP180;3986;41.884;23.466;2023-12-29T10:58:59;92373.00;;;27.30
7882;BMP180;3986;41.884;23.466;2023-12-29T11:01:28;92366.00;;;28.60
7882;BMP180;3986;41.884;23.466;2023-12-29T11:04:01;92368.00;;;30.10
7882;BMP180;3986;41.884;23.466;2023-12-29T11:06:29;92367.00;;;29.60
7882;BMP180;3986;41.884;23.466;2023-12-29T11:08:56;92367.00;;;30.90
7882;BMP180;3986;41.884;23.466;2023-12-29T11:11:23;92361.00;;;30.90
7882;BMP180;3986;41.884;23.466;2023-12-29T11:13:53;92343.00;;;31.10
7882;BMP180;3986;41.884;23.466;2023-12-29T11:16:21;92357.00;;;32.10
7882;BMP180;3986;41.884;23.466;2023-12-29T11:18:49;92353.00;;;29.70
7882;BMP180;3986;41.884;23.466;2023-12-29T11:21:19;92345.00;;;29.60
7882;BMP180;3986;41.884;23.466;2023-12-29T11:23:48;92343.00;;;30.80
7882;BMP180;3986;41.884;23.466;2023-12-29T11:26:15;92347.00;;;28.70
7882;BMP180;3986;41.884;23.466;2023-12-29T11:28:42;92343.00;;;28.40
7882;BMP180;3986;41.884;23.466;2023-12-29T11:31:11;92332.00;;;29.30
7882;BMP180;3986;41.884;23.466;2023-12-29T11:33:40;92328.00;;;30.70
7882;BMP180;3986;41.884;23.466;2023-12-29T11:36:11;92327.00;;;31.50
7882;BMP180;3986;41.884;23.466;2023-12-29T11:38:47;92319.00;;;28.70
7882;BMP180;3986;41.884;23.466;2023-12-29T11:41:22;92315.00;;;30.70
7882;BMP180;3986;41.884;23.466;2023-12-29T11:43:57;92329.00;;;30.90
7882;BMP180;3986;41.884;23.466;2023-12-29T11:46:36;92320.00;;;32.10
7882;BMP180;3986;41.884;23.466;2023-12-29T11:49:03;92313.00;;;30.80
7882;BMP180;3986;41.884;23.466;2023-12-29T11:51:32;92312.00;;;31.30
7882;BMP180;3986;41.884;23.466;2023-12-29T11:53:59;92302.00;;;31.70
7882;BMP180;3986;41.884;23.466;2023-12-29T11:56:30;92304.00;;;30.40
7882;BMP180;3986;41.884;23.466;2023-12-29T11:59:12;92298.00;;;31.00
7882;BMP180;3986;41.884;23.466;2023-12-29T12:01:40;92307.00;;;31.10
7882;BMP180;3986;41.884;23.466;2023-12-29T12:04:35;92310.00;;;32.80
7882;BMP180;3986;41.884;23.466;2023-12-29T12:07:03;92308.00;;;32.10
7882;BMP180;3986;41.884;23.466;2023-12-29T12:09:30;92305.00;;;32.30
7882;BMP180;3986;41.884;23.466;2023-12-29T12:12:00;92314.00;;;32.60
7882;BMP180;3986;41.884;23.466;2023-12-29T12:14:49;92299.00;;;32.30
7882;BMP180;3986;41.884;23.466;2023-12-29T12:17:30;92302.00;;;31.50
7882;BMP180;3986;41.884;23.466;2023-12-29T12:19:59;92302.00;;;32.30
7882;BMP180;3986;41.884;23.466;2023-12-29T12:22:29;92319.00;;;32.30
7882;BMP180;3986;41.884;23.466;2023-12-29T12:24:56;92305.00;;;32.20
7882;BMP180;3986;41.884;23.466;2023-12-29T12:27:24;92307.00;;;31.20
7882;BMP180;3986;41.884;23.466;2023-12-29T12:29:53;92310.00;;;32.20
7882;BMP180;3986;41.884;23.466;2023-12-29T12:32:23;92306.00;;;32.30
7882;BMP180;3986;41.884;23.466;2023-12-29T12:34:51;92315.00;;;32.00
7882;BMP180;3986;41.884;23.466;2023-12-29T12:37:22;92311.00;;;32.20
7882;BMP180;3986;41.884;23.466;2023-12-29T12:39:49;92316.00;;;31.40
7882;BMP180;3986;41.884;23.466;2023-12-29T12:42:17;92308.00;;;31.20
7882;BMP180;3986;41.884;23.466;2023-12-29T12:44:48;92309.00;;;32.00
7882;BMP180;3986;41.884;23.466;2023-12-29T12:47:19;92311.00;;;28.60
7882;BMP180;3986;41.884;23.466;2023-12-29T12:49:51;92307.00;;;29.70
7882;BMP180;3986;41.884;23.466;2023-12-29T12:52:18;92305.00;;;26.20
7882;BMP180;3986;41.884;23.466;2023-12-29T12:54:46;92299.00;;;24.80
7882;BMP180;3986;41.884;23.466;2023-12-29T12:57:18;92303.00;;;28.40
7882;BMP180;3986;41.884;23.466;2023-12-29T12:59:45;92294.00;;;24.80
7882;BMP180;3986;41.884;23.466;2023-12-29T13:02:12;92292.00;;;23.70
7882;BMP180;3986;41.884;23.466;2023-12-29T13:04:39;92285.00;;;23.50
7882;BMP180;3986;41.884;23.466;2023-12-29T13:07:08;92293.00;;;25.30
7882;BMP180;3986;41.884;23.466;2023-12-29T13:09:36;92289.00;;;23.30
7882;BMP180;3986;41.884;23.466;2023-12-29T13:12:10;92289.00;;;27.00
7882;BMP180;3986;41.884;23.466;2023-12-29T13:14:37;92296.00;;;28.40
7882;BMP180;3986;41.884;23.466;2023-12-29T13:17:08;92296.00;;;28.80
7882;BMP180;3986;41.884;23.466;2023-12-29T13:19:36;92293.00;;;27.70
7882;BMP180;3986;41.884;23.466;2023-12-29T13:22:06;92298.00;;;28.40
7882;BMP180;3986;41.884;23.466;2023-12-29T13:24:35;92294.00;;;28.00
7882;BMP180;3986;41.884;23.466;2023-12-29T13:27:05;92279.00;;;27.90
7882;BMP180;3986;41.884;23.466;2023-12-29T13:29:33;92303.00;;;27.40
7882;BMP180;3986;41.884;23.466;2023-12-29T13:32:04;92309.00;;;27.10
7882;BMP180;3986;41.884;23.466;2023-12-29T13:34:36;92301.00;;;26.50
7882;BMP180;3986;41.884;23.466;2023-12-29T13:37:14;92302.00;;;26.70
7882;BMP180;3986;41.884;23.466;2023-12-29T13:39:46;92306.00;;;25.90
7882;BMP180;3986;41.884;23.466;2023-12-29T13:42:17;92299.00;;;25.50
7882;BMP180;3986;41.884;23.466;2023-12-29T13:44:46;92296.00;;;23.30
7882;BMP180;3986;41.884;23.466;2023-12-29T13:47:14;92294.00;;;22.80
7882;BMP180;3986;41.884;23.466;2023-12-29T13:49:41;92306.00;;;22.80
7882;BMP180;3986;41.884;23.466;2023-12-29T13:52:08;92295.00;;;23.10
7882;BMP180;3986;41.884;23.466;2023-12-29T13:54:40;92292.00;;;20.60
7882;BMP180;3986;41.884;23.466;2023-12-29T13:57:09;92295.00;;;18.80
7882;BMP180;3986;41.884;23.466;2023-12-29T13:59:36;92286.00;;;19.30
7882;BMP180;3986;41.884;23.466;2023-12-29T14:02:20;92289.00;;;18.90
7882;BMP180;3986;41.884;23.466;2023-12-29T14:04:47;92285.00;;;18.60
7882;BMP180;3986;41.884;23.466;2023-12-29T14:07:14;92283.00;;;18.10
7882;BMP180;3986;41.884;23.466;2023-12-29T14:09:42;92281.00;;;17.10
7882;BMP180;3986;41.884;23.466;2023-12-29T14:12:10;92276.00;;;16.30
7882;BMP180;3986;41.884;23.466;2023-12-29T14:14:37;92277.00;;;15.60
7882;BMP180;3986;41.884;23.466;2023-12-29T14:17:04;92283.00;;;15.20
7882;BMP180;3986;41.884;23.466;2023-12-29T14:19:36;92286.00;;;14.40
7882;BMP180;3986;41.884;23.466;2023-12-29T14:22:04;92284.00;;;14.40
7882;BMP180;3986;41.884;23.466;2023-12-29T14:24:31;92282.00;;;14.50
7882;BMP180;3986;41.884;23.466;2023-12-29T14:26:57;92282.00;;;14.70
7882;BMP180;3986;41.884;23.466;2023-12-29T14:29:26;92285.00;;;14.00